Time;durP1;ratioP1;P1;durP2;ratioP2;P2;SDS_P1;SDS_P2;PMS_P1;PMS_P2;Temp;Humidity;BMP_temperature;BMP_pressure;BME280_temperature;BME280_humidity;BME280_pressure;Samples;Min_cycle;Max_cycle;Signal;HPM_P1;HPM_P2
2023/05/19 00:01:51;;;;;;;;;;;11.00;66.90;;;;;;5011520;28;19917;-83
2023/05/19 00:04:17;;;;;;;;;;;10.90;67.60;;;;;;4996558;28;19932;-83
2023/05/19 00:06:43;;;;;;;;;;;10.90;68.30;;;;;;5011197;28;20270;-84
2023/05/19 00:09:09;;;;;;;;;;;10.80;67.60;;;;;;4990517;28;20046;-84
2023/05/19 00:11:35;;;;;;;;;;;10.80;67.70;;;;;;5012190;28;20377;-83
2023/05/19 00:14:01;;;;;;;;;;;10.70;67.70;;;;;;4993212;28;19953;-83
2023/05/19 00:16:28;;;;;;;;;;;10.70;67.70;;;;;;4998571;28;19925;-83
2023/05/19 00:18:54;;;;;;;;;;;10.70;67.90;;;;;;5012435;28;20541;-83
2023/05/19 00:21:19;;;;;;;;;;;10.70;68.30;;;;;;4992602;28;19929;-83
2023/05/19 00:23:45;;;;;;;;;;;10.60;68.50;;;;;;4996995;28;19914;-84
2023/05/19 00:26:11;;;;;;;;;;;10.60;68.30;;;;;;5017933;28;19956;-83
2023/05/19 00:28:36;;;;;;;;;;;10.60;69.00;;;;;;5014341;28;19936;-83
2023/05/19 00:31:03;;;;;;;;;;;10.60;69.40;;;;;;5018380;28;19917;-83
2023/05/19 00:33:28;;;;;;;;;;;10.50;69.40;;;;;;5005439;28;19913;-84
2023/05/19 00:35:54;;;;;;;;;;;10.40;70.40;;;;;;5003801;28;19910;-83
2023/05/19 00:38:19;;;;;;;;;;;10.40;71.00;;;;;;5009702;28;19917;-83
2023/05/19 00:40:45;;;;;;;;;;;10.30;71.10;;;;;;5012906;28;19910;-82
2023/05/19 00:43:10;;;;;;;;;;;10.40;70.00;;;;;;4996005;28;20451;-82
2023/05/19 00:45:36;;;;;;;;;;;10.30;70.20;;;;;;5016250;28;19916;-83
2023/05/19 00:48:01;;;;;;;;;;;10.30;69.80;;;;;;4996714;28;19964;-82
2023/05/19 00:50:27;;;;;;;;;;;10.20;69.80;;;;;;5010110;28;19914;-82
2023/05/19 00:52:53;;;;;;;;;;;10.20;69.80;;;;;;5016513;28;19973;-83
2023/05/19 00:55:21;;;;;;;;;;;10.20;70.10;;;;;;4993346;28;19952;-83
2023/05/19 00:57:47;;;;;;;;;;;10.10;70.40;;;;;;5013088;28;19920;-83
2023/05/19 01:00:13;;;;;;;;;;;10.10;70.40;;;;;;5020256;28;19913;-84
2023/05/19 01:02:39;;;;;;;;;;;10.10;70.90;;;;;;5015181;28;20121;-83
2023/05/19 01:05:05;;;;;;;;;;;10.10;70.70;;;;;;5011626;28;19910;-84
2023/05/19 01:07:31;;;;;;;;;;;10.10;70.80;;;;;;5010098;28;19917;-83
2023/05/19 01:09:57;;;;;;;;;;;10.10;70.30;;;;;;5012389;28;20033;-83
2023/05/19 01:12:22;;;;;;;;;;;10.10;70.40;;;;;;5020558;28;19924;-84
2023/05/19 01:14:48;;;;;;;;;;;10.10;70.40;;;;;;5010045;28;19965;-84
2023/05/19 01:17:23;;;;;;;;;;;10.10;70.00;;;;;;4992453;28;20291;-83
2023/05/19 01:19:52;;;;;;;;;;;10.00;70.00;;;;;;5006446;28;19910;-83
2023/05/19 01:22:37;;;;;;;;;;;10.00;70.20;;;;;;4991497;28;19917;-83
2023/05/19 01:25:21;;;;;;;;;;;10.00;71.10;;;;;;5004339;28;19910;-83
2023/05/19 01:28:05;;;;;;;;;;;9.90;71.10;;;;;;5021517;28;19923;-83
2023/05/19 01:30:41;;;;;;;;;;;9.80;71.20;;;;;;5043985;22;19925;-86
2023/05/19 01:33:08;;;;;;;;;;;9.90;70.90;;;;;;5023724;28;19916;-86
2023/05/19 01:35:34;;;;;;;;;;;9.80;71.00;;;;;;5034125;28;19913;-86
2023/05/19 01:38:00;;;;;;;;;;;9.80;70.80;;;;;;5035508;28;19963;-86
2023/05/19 01:40:26;;;;;;;;;;;9.70;71.80;;;;;;5036978;28;19912;-86
2023/05/19 01:42:53;;;;;;;;;;;9.70;71.90;;;;;;5032339;28;19928;-85
2023/05/19 01:45:18;;;;;;;;;;;9.70;71.80;;;;;;5033003;28;20512;-86
2023/05/19 01:47:46;;;;;;;;;;;9.80;71.50;;;;;;5033856;28;19968;-86
2023/05/19 01:50:11;;;;;;;;;;;9.70;71.20;;;;;;5031544;28;19922;-86
2023/05/19 01:52:37;;;;;;;;;;;9.70;71.70;;;;;;5033207;28;19919;-84
2023/05/19 01:55:02;;;;;;;;;;;9.80;71.70;;;;;;5034271;28;20333;-83
2023/05/19 01:57:28;;;;;;;;;;;9.70;71.60;;;;;;5045963;28;20064;-83
2023/05/19 01:59:56;;;;;;;;;;;9.80;71.90;;;;;;5035149;28;19909;-84
2023/05/19 02:02:38;;;;;;;;;;;9.80;71.70;;;;;;5029719;28;19913;-84
2023/05/19 02:05:15;;;;;;;;;;;9.70;71.30;;;;;;5030501;28;19913;-84
2023/05/19 02:07:49;;;;;;;;;;;9.60;71.50;;;;;;5031566;28;19943;-84
2023/05/19 02:10:22;;;;;;;;;;;9.60;71.80;;;;;;5042195;28;19921;-84
2023/05/19 02:12:49;;;;;;;;;;;9.60;72.10;;;;;;5033477;28;19952;-84
2023/05/19 02:15:15;;;;;;;;;;;9.60;72.30;;;;;;5026505;28;20307;-84
2023/05/19 02:17:46;;;;;;;;;;;9.60;72.10;;;;;;5032304;28;19913;-84
2023/05/19 02:20:12;;;;;;;;;;;9.50;71.80;;;;;;5042466;28;19977;-84
2023/05/19 02:22:38;;;;;;;;;;;9.50;72.30;;;;;;5047991;28;19936;-83
2023/05/19 02:25:04;;;;;;;;;;;9.40;72.40;;;;;;5054966;28;19905;-83
2023/05/19 02:27:29;;;;;;;;;;;9.40;72.20;;;;;;5029145;28;20399;-84
2023/05/19 02:29:55;;;;;;;;;;;9.30;73.00;;;;;;5038183;28;19917;-84
2023/05/19 02:32:20;;;;;;;;;;;9.30;72.60;;;;;;5044418;28;19916;-84
2023/05/19 02:34:46;;;;;;;;;;;9.30;73.00;;;;;;5036229;28;20801;-84
2023/05/19 02:37:12;;;;;;;;;;;9.30;73.20;;;;;;5025405;28;19913;-84
2023/05/19 02:39:38;;;;;;;;;;;9.30;73.30;;;;;;5030617;28;19913;-84
2023/05/19 02:42:03;;;;;;;;;;;9.30;72.80;;;;;;5031846;28;19916;-84
2023/05/19 02:44:29;;;;;;;;;;;9.30;73.20;;;;;;5031986;28;19909;-84
2023/05/19 02:46:54;;;;;;;;;;;9.20;73.00;;;;;;5029694;28;20346;-84
2023/05/19 02:49:20;;;;;;;;;;;9.20;72.90;;;;;;5034407;28;20383;-84
2023/05/19 02:51:45;;;;;;;;;;;9.10;73.20;;;;;;5041153;28;19909;-84
2023/05/19 02:54:11;;;;;;;;;;;9.10;73.60;;;;;;5036834;28;20042;-84
2023/05/19 02:56:36;;;;;;;;;;;9.10;73.60;;;;;;5035892;28;19963;-84
2023/05/19 02:59:01;;;;;;;;;;;9.20;74.00;;;;;;5037392;28;19913;-84
2023/05/19 03:01:27;;;;;;;;;;;9.10;74.00;;;;;;5037426;28;19959;-84
2023/05/19 03:03:52;;;;;;;;;;;9.00;74.10;;;;;;5037040;28;19913;-84
2023/05/19 03:06:18;;;;;;;;;;;9.00;73.70;;;;;;5046589;28;19915;-84
2023/05/19 03:08:43;;;;;;;;;;;8.80;73.90;;;;;;5054782;28;19915;-84
2023/05/19 03:11:09;;;;;;;;;;;8.60;74.40;;;;;;5036974;28;19917;-84
2023/05/19 03:13:35;;;;;;;;;;;8.50;75.10;;;;;;5035331;28;19916;-84
2023/05/19 03:16:00;;;;;;;;;;;8.30;75.60;;;;;;5035161;28;20381;-84
2023/05/19 03:18:26;;;;;;;;;;;8.30;76.10;;;;;;5037300;28;19933;-84
2023/05/19 03:20:55;;;;;;;;;;;8.30;77.00;;;;;;5033810;28;19917;-84
2023/05/19 03:23:21;;;;;;;;;;;8.30;77.40;;;;;;5044577;28;19967;-84
2023/05/19 03:25:46;;;;;;;;;;;8.40;77.70;;;;;;5035422;28;20349;-84
2023/05/19 03:28:12;;;;;;;;;;;8.40;77.80;;;;;;5037185;28;19921;-84
2023/05/19 03:30:37;;;;;;;;;;;8.50;77.80;;;;;;5056958;28;20392;-85
2023/05/19 03:33:04;;;;;;;;;;;8.50;76.50;;;;;;5052993;28;20409;-85
2023/05/19 03:35:29;;;;;;;;;;;8.50;76.40;;;;;;5036283;28;19909;-85
2023/05/19 03:37:55;;;;;;;;;;;8.50;77.50;;;;;;5039920;28;20389;-84
2023/05/19 03:40:20;;;;;;;;;;;8.50;77.60;;;;;;5049326;28;19916;-85
2023/05/19 03:42:46;;;;;;;;;;;8.60;77.50;;;;;;5055743;28;20378;-85
2023/05/19 03:45:11;;;;;;;;;;;8.60;77.00;;;;;;5047045;28;20310;-84
2023/05/19 03:47:37;;;;;;;;;;;8.50;77.00;;;;;;5036783;28;20024;-84
2023/05/19 03:50:02;;;;;;;;;;;8.60;77.40;;;;;;5038189;28;20461;-84
2023/05/19 03:52:28;;;;;;;;;;;8.70;76.50;;;;;;5035992;28;20290;-84
2023/05/19 03:54:53;;;;;;;;;;;8.70;76.50;;;;;;5041938;28;19913;-85
2023/05/19 03:57:19;;;;;;;;;;;8.60;75.90;;;;;;5048123;28;19920;-84
2023/05/19 03:59:44;;;;;;;;;;;8.60;76.30;;;;;;5034877;28;19913;-84
2023/05/19 04:02:10;;;;;;;;;;;8.60;76.90;;;;;;5035461;28;19909;-84
2023/05/19 04:04:36;;;;;;;;;;;8.60;76.50;;;;;;5035015;28;19913;-84
2023/05/19 04:07:02;;;;;;;;;;;8.60;76.50;;;;;;5036724;28;19909;-84
2023/05/19 04:09:27;;;;;;;;;;;8.60;76.20;;;;;;5033550;28;19924;-83
2023/05/19 04:11:53;;;;;;;;;;;8.70;76.20;;;;;;5040570;28;19943;-85
2023/05/19 04:14:19;;;;;;;;;;;8.70;76.80;;;;;;5033164;28;20376;-84
2023/05/19 04:16:44;;;;;;;;;;;8.80;76.00;;;;;;5042715;28;19909;-84
2023/05/19 04:19:09;;;;;;;;;;;8.70;76.40;;;;;;5040797;28;19913;-84
2023/05/19 04:21:35;;;;;;;;;;;8.80;76.50;;;;;;5035500;28;19917;-84
2023/05/19 04:24:01;;;;;;;;;;;8.90;76.60;;;;;;5025499;28;20289;-84
2023/05/19 04:26:29;;;;;;;;;;;8.90;76.40;;;;;;5039457;28;19913;-84
2023/05/19 04:28:55;;;;;;;;;;;8.90;76.80;;;;;;5037009;28;19913;-84
2023/05/19 04:31:20;;;;;;;;;;;9.00;76.10;;;;;;5036078;28;19924;-84
2023/05/19 04:33:47;;;;;;;;;;;9.10;75.80;;;;;;5035267;28;19924;-84
2023/05/19 04:36:12;;;;;;;;;;;9.10;75.90;;;;;;5033134;28;19928;-83
2023/05/19 04:38:40;;;;;;;;;;;9.10;75.00;;;;;;5038873;28;19917;-84
2023/05/19 04:41:09;;;;;;;;;;;9.10;74.80;;;;;;5044100;28;20624;-84
2023/05/19 04:43:35;;;;;;;;;;;9.10;74.70;;;;;;5053676;28;19919;-84
2023/05/19 04:46:04;;;;;;;;;;;9.10;75.30;;;;;;5039066;28;19913;-84
2023/05/19 04:48:30;;;;;;;;;;;9.10;75.00;;;;;;5025569;28;19913;-83
2023/05/19 04:50:56;;;;;;;;;;;9.20;74.70;;;;;;5033823;28;19955;-84
2023/05/19 04:53:24;;;;;;;;;;;9.10;74.70;;;;;;5034128;28;20020;-84
2023/05/19 04:55:50;;;;;;;;;;;9.20;75.30;;;;;;5037675;28;19913;-84
2023/05/19 04:58:15;;;;;;;;;;;9.30;74.90;;;;;;5038913;28;19921;-83
2023/05/19 05:00:41;;;;;;;;;;;9.50;74.60;;;;;;5035121;28;19956;-84
2023/05/19 05:03:07;;;;;;;;;;;9.60;74.80;;;;;;5034112;28;19917;-84
2023/05/19 05:05:33;;;;;;;;;;;9.70;74.50;;;;;;5034775;28;20449;-84
2023/05/19 05:07:58;;;;;;;;;;;9.80;73.60;;;;;;5033635;28;20604;-84
2023/05/19 05:10:24;;;;;;;;;;;9.80;73.90;;;;;;5030864;28;19920;-84
2023/05/19 05:12:50;;;;;;;;;;;9.90;73.20;;;;;;5039524;28;20043;-84
2023/05/19 05:15:15;;;;;;;;;;;9.90;72.40;;;;;;5041322;28;19913;-84
2023/05/19 05:17:42;;;;;;;;;;;10.00;73.10;;;;;;5033381;28;19910;-84
2023/05/19 05:20:08;;;;;;;;;;;10.10;72.80;;;;;;5033681;28;19909;-84
2023/05/19 05:22:33;;;;;;;;;;;10.10;73.50;;;;;;5033461;28;20346;-84
2023/05/19 05:25:00;;;;;;;;;;;10.20;73.50;;;;;;5033889;28;19949;-84
2023/05/19 05:27:25;;;;;;;;;;;10.30;73.30;;;;;;5032201;28;20366;-83
2023/05/19 05:29:51;;;;;;;;;;;10.50;73.60;;;;;;5034404;28;19939;-84
2023/05/19 05:32:17;;;;;;;;;;;10.60;72.10;;;;;;5044662;28;19912;-84
2023/05/19 05:34:42;;;;;;;;;;;10.90;70.80;;;;;;5033335;28;19920;-84
2023/05/19 05:37:08;;;;;;;;;;;10.90;70.70;;;;;;5032571;28;19959;-84
2023/05/19 05:39:33;;;;;;;;;;;11.00;70.90;;;;;;5032016;28;19910;-84
2023/05/19 05:41:59;;;;;;;;;;;11.20;70.80;;;;;;5018355;28;19920;-84
2023/05/19 05:44:24;;;;;;;;;;;11.30;69.50;;;;;;5012593;28;19909;-84
2023/05/19 05:46:50;;;;;;;;;;;11.40;69.70;;;;;;5034904;28;20283;-84
2023/05/19 05:49:15;;;;;;;;;;;11.30;69.30;;;;;;5037838;28;19956;-84
2023/05/19 05:51:41;;;;;;;;;;;11.30;69.40;;;;;;5034606;28;20379;-84
2023/05/19 05:54:06;;;;;;;;;;;11.50;69.10;;;;;;5034284;28;19919;-84
2023/05/19 05:56:32;;;;;;;;;;;11.50;69.80;;;;;;5029753;28;20012;-84
2023/05/19 05:58:58;;;;;;;;;;;11.50;69.20;;;;;;5030377;28;19910;-84
2023/05/19 06:01:24;;;;;;;;;;;11.30;70.10;;;;;;5032863;28;19924;-84
2023/05/19 06:03:49;;;;;;;;;;;11.10;70.90;;;;;;5043675;28;19909;-84
2023/05/19 06:06:15;;;;;;;;;;;11.20;69.20;;;;;;5045283;28;19989;-83
2023/05/19 06:08:40;;;;;;;;;;;11.10;71.30;;;;;;5058598;28;19913;-84
2023/05/19 06:11:07;;;;;;;;;;;11.10;71.70;;;;;;5035906;28;19921;-84
2023/05/19 06:13:36;;;;;;;;;;;11.20;71.40;;;;;;5035429;28;19937;-85
2023/05/19 06:16:02;;;;;;;;;;;11.20;70.70;;;;;;5032362;28;19913;-84
2023/05/19 06:18:28;;;;;;;;;;;11.20;70.60;;;;;;5039955;28;19920;-84
2023/05/19 06:20:53;;;;;;;;;;;11.10;70.80;;;;;;5042953;28;19967;-84
2023/05/19 06:23:19;;;;;;;;;;;11.10;70.20;;;;;;5035849;28;19914;-84
2023/05/19 06:25:44;;;;;;;;;;;11.20;70.50;;;;;;5020414;28;19916;-85
2023/05/19 06:28:10;;;;;;;;;;;11.20;70.40;;;;;;5044506;28;19962;-85
2023/05/19 06:30:35;;;;;;;;;;;11.30;70.80;;;;;;5052734;28;19920;-84
2023/05/19 06:33:02;;;;;;;;;;;11.50;69.60;;;;;;5042396;28;19913;-84
2023/05/19 06:35:27;;;;;;;;;;;11.50;68.80;;;;;;5038395;28;19936;-84
2023/05/19 06:37:55;;;;;;;;;;;11.50;69.10;;;;;;5039102;28;19913;-84
2023/05/19 06:40:20;;;;;;;;;;;11.50;69.80;;;;;;5037763;28;19955;-84
2023/05/19 06:42:46;;;;;;;;;;;11.50;69.20;;;;;;5034156;28;19913;-84
2023/05/19 06:45:11;;;;;;;;;;;11.50;69.90;;;;;;5056559;28;19961;-84
2023/05/19 06:47:37;;;;;;;;;;;11.60;70.30;;;;;;5038877;28;19921;-84
2023/05/19 06:50:02;;;;;;;;;;;11.60;69.10;;;;;;5036563;28;20318;-84
2023/05/19 06:52:28;;;;;;;;;;;11.70;69.70;;;;;;5037627;28;19910;-84
2023/05/19 06:54:53;;;;;;;;;;;11.90;69.90;;;;;;5037146;28;20268;-84
2023/05/19 06:57:19;;;;;;;;;;;11.90;67.50;;;;;;5036098;28;19932;-84
2023/05/19 06:59:45;;;;;;;;;;;11.90;66.70;;;;;;5041817;28;19909;-84
2023/05/19 07:02:11;;;;;;;;;;;11.90;67.60;;;;;;5047992;28;19913;-83
2023/05/19 07:04:36;;;;;;;;;;;11.90;67.70;;;;;;5044148;28;19967;-84
2023/05/19 07:07:02;;;;;;;;;;;12.00;69.10;;;;;;5042482;28;19908;-84
2023/05/19 07:09:27;;;;;;;;;;;12.10;68.20;;;;;;5054049;28;20332;-84
2023/05/19 07:11:55;;;;;;;;;;;12.20;67.30;;;;;;5034762;28;19909;-84
2023/05/19 07:14:20;;;;;;;;;;;12.30;68.20;;;;;;5033105;28;19910;-84
2023/05/19 07:16:46;;;;;;;;;;;12.30;66.40;;;;;;5029602;28;20393;-85
2023/05/19 07:19:11;;;;;;;;;;;12.50;67.90;;;;;;5033536;28;19918;-84
2023/05/19 07:21:37;;;;;;;;;;;12.50;67.00;;;;;;5047902;28;19944;-84
2023/05/19 07:24:02;;;;;;;;;;;12.60;65.60;;;;;;5045951;28;20325;-84
2023/05/19 07:26:28;;;;;;;;;;;12.60;65.10;;;;;;5048429;28;19908;-84
2023/05/19 07:28:53;;;;;;;;;;;12.60;64.80;;;;;;5035038;28;20008;-84
2023/05/19 07:31:19;;;;;;;;;;;12.70;66.00;;;;;;4656880;22;19929;-84
2023/05/19 07:33:44;;;;;;;;;;;12.70;65.00;;;;;;5025603;28;20051;-85
2023/05/19 07:36:10;;;;;;;;;;;12.80;66.20;;;;;;5026715;28;19917;-84
2023/05/19 07:38:35;;;;;;;;;;;12.90;63.70;;;;;;5036677;28;20429;-84
2023/05/19 07:41:01;;;;;;;;;;;13.00;64.30;;;;;;5025906;28;19914;-83
2023/05/19 07:43:27;;;;;;;;;;;13.20;62.90;;;;;;5003042;28;19910;-83
2023/05/19 07:45:53;;;;;;;;;;;13.20;64.00;;;;;;5016252;28;19924;-84
2023/05/19 07:48:21;;;;;;;;;;;13.30;62.70;;;;;;5016335;28;20387;-83
2023/05/19 07:50:46;;;;;;;;;;;13.50;61.90;;;;;;5010938;28;19928;-84
2023/05/19 07:53:12;;;;;;;;;;;13.50;63.30;;;;;;5017321;28;19913;-83
2023/05/19 07:55:37;;;;;;;;;;;13.60;62.60;;;;;;5017373;28;19921;-85
2023/05/19 07:58:03;;;;;;;;;;;13.80;63.00;;;;;;5008343;28;19920;-83
2023/05/19 08:00:28;;;;;;;;;;;14.00;59.60;;;;;;4997102;28;19910;-83
2023/05/19 08:02:55;;;;;;;;;;;14.00;61.00;;;;;;5004511;28;19948;-84
2023/05/19 08:05:21;;;;;;;;;;;14.00;61.20;;;;;;5011009;28;20327;-84
2023/05/19 08:07:46;;;;;;;;;;;14.10;61.30;;;;;;5015493;28;19909;-83
2023/05/19 08:10:12;;;;;;;;;;;14.20;60.00;;;;;;5014973;28;20268;-83
2023/05/19 08:12:37;;;;;;;;;;;14.20;59.60;;;;;;5000802;28;19938;-84
2023/05/19 08:15:03;;;;;;;;;;;14.20;60.80;;;;;;5020794;28;19909;-84
2023/05/19 08:17:28;;;;;;;;;;;14.30;60.70;;;;;;5015059;28;20391;-85
2023/05/19 08:19:54;;;;;;;;;;;14.50;59.20;;;;;;5005797;28;19920;-85
2023/05/19 08:22:19;;;;;;;;;;;14.50;61.90;;;;;;5003632;28;19906;-85
2023/05/19 08:24:45;;;;;;;;;;;14.70;59.50;;;;;;4998220;28;20008;-85
2023/05/19 08:27:10;;;;;;;;;;;14.70;60.60;;;;;;5023073;28;19922;-84
2023/05/19 08:29:37;;;;;;;;;;;14.70;57.30;;;;;;5028919;28;19909;-85
2023/05/19 08:32:02;;;;;;;;;;;14.70;57.70;;;;;;5024641;28;19918;-83
2023/05/19 08:34:28;;;;;;;;;;;14.70;57.40;;;;;;5006104;28;19956;-85
2023/05/19 08:36:56;;;;;;;;;;;14.80;58.70;;;;;;5001319;28;20012;-84
2023/05/19 08:39:25;;;;;;;;;;;15.00;59.00;;;;;;5010808;28;19913;-85
2023/05/19 08:41:51;;;;;;;;;;;15.10;53.60;;;;;;5025221;28;19971;-84
2023/05/19 08:44:17;;;;;;;;;;;15.10;57.80;;;;;;5033978;28;19909;-84
2023/05/19 08:46:42;;;;;;;;;;;15.00;55.50;;;;;;5033322;28;20390;-86
2023/05/19 08:49:12;;;;;;;;;;;15.20;58.10;;;;;;5014026;28;19920;-84
2023/05/19 08:51:49;;;;;;;;;;;15.40;58.90;;;;;;5023142;28;20075;-84
2023/05/19 08:54:15;;;;;;;;;;;15.50;55.20;;;;;;5015149;28;19936;-84
2023/05/19 08:56:46;;;;;;;;;;;15.60;56.90;;;;;;5015757;28;20426;-84
2023/05/19 08:59:13;;;;;;;;;;;15.70;56.20;;;;;;5023329;28;19894;-85
2023/05/19 09:01:43;;;;;;;;;;;15.60;52.90;;;;;;5028879;28;21234;-85
2023/05/19 09:04:09;;;;;;;;;;;15.50;54.60;;;;;;5026160;28;19913;-85
2023/05/19 09:06:43;;;;;;;;;;;15.60;57.20;;;;;;5090084;28;19925;-83
2023/05/19 09:09:09;;;;;;;;;;;15.60;54.00;;;;;;5089972;28;19912;-85
2023/05/19 09:11:36;;;;;;;;;;;15.70;55.60;;;;;;5074753;28;20022;-84
2023/05/19 09:14:02;;;;;;;;;;;15.70;52.10;;;;;;5074649;28;19912;-85
2023/05/19 09:16:28;;;;;;;;;;;15.70;52.30;;;;;;5074966;28;19967;-84
2023/05/19 09:18:55;;;;;;;;;;;15.80;53.50;;;;;;5075782;28;19916;-84
2023/05/19 09:21:26;;;;;;;;;;;15.70;50.80;;;;;;5067655;28;19912;-85
2023/05/19 09:23:54;;;;;;;;;;;15.80;53.20;;;;;;5070855;28;19930;-86
2023/05/19 09:26:22;;;;;;;;;;;15.90;52.70;;;;;;5079214;28;19940;-83
2023/05/19 09:28:47;;;;;;;;;;;16.00;51.60;;;;;;5073960;28;19912;-85
2023/05/19 09:31:12;;;;;;;;;;;16.10;51.90;;;;;;5076811;28;19964;-83
2023/05/19 09:33:39;;;;;;;;;;;16.10;52.30;;;;;;5085325;28;19952;-84
2023/05/19 09:36:05;;;;;;;;;;;16.20;54.30;;;;;;5073037;28;19913;-84
2023/05/19 09:38:31;;;;;;;;;;;16.40;52.80;;;;;;5084060;28;19913;-84
2023/05/19 09:40:58;;;;;;;;;;;16.40;49.30;;;;;;5086161;28;19919;-83
2023/05/19 09:43:32;;;;;;;;;;;16.30;50.20;;;;;;5090767;28;19921;-82
2023/05/19 09:46:05;;;;;;;;;;;16.30;47.50;;;;;;5080583;28;19923;-83
2023/05/19 09:48:30;;;;;;;;;;;16.20;48.10;;;;;;5086243;28;19909;-82
2023/05/19 09:50:56;;;;;;;;;;;16.10;49.20;;;;;;5084647;28;19913;-81
2023/05/19 09:53:23;;;;;;;;;;;16.10;51.70;;;;;;5089896;28;19909;-82
2023/05/19 09:55:49;;;;;;;;;;;16.20;49.80;;;;;;5078135;28;19935;-83
2023/05/19 09:58:16;;;;;;;;;;;16.20;49.40;;;;;;5069937;28;19915;-83
2023/05/19 10:00:42;;;;;;;;;;;16.20;49.20;;;;;;5069826;28;19916;-83
2023/05/19 10:03:08;;;;;;;;;;;16.30;50.50;;;;;;5070204;28;19909;-81
2023/05/19 10:05:33;;;;;;;;;;;16.40;51.00;;;;;;5068360;28;20245;-83
2023/05/19 10:08:00;;;;;;;;;;;16.50;48.70;;;;;;5075190;28;19916;-81
2023/05/19 10:10:26;;;;;;;;;;;16.50;48.70;;;;;;5069360;28;20389;-82
2023/05/19 10:12:53;;;;;;;;;;;16.60;51.10;;;;;;5064504;28;19915;-84
2023/05/19 10:15:21;;;;;;;;;;;16.60;51.00;;;;;;5069805;28;20008;-82
2023/05/19 10:17:48;;;;;;;;;;;16.80;48.50;;;;;;5054983;28;19959;-83
2023/05/19 10:20:15;;;;;;;;;;;16.60;48.30;;;;;;5056341;28;19913;-83
2023/05/19 10:22:41;;;;;;;;;;;16.60;47.60;;;;;;5056898;28;19960;-82
2023/05/19 10:25:07;;;;;;;;;;;16.80;50.80;;;;;;5050008;28;19925;-89
2023/05/19 10:27:39;;;;;;;;;;;16.80;46.10;;;;;;5049574;28;19913;-88
2023/05/19 10:30:11;;;;;;;;;;;16.70;48.30;;;;;;5044032;28;20017;-87
2023/05/19 10:32:37;;;;;;;;;;;16.60;46.10;;;;;;5057654;28;19912;-87
2023/05/19 10:35:06;;;;;;;;;;;16.50;47.50;;;;;;5050552;28;20382;-85
2023/05/19 10:37:56;;;;;;;;;;;16.80;48.90;;;;;;5051159;28;20016;-83
2023/05/19 10:40:32;;;;;;;;;;;16.90;49.10;;;;;;5049056;28;19955;-86
2023/05/19 10:43:04;;;;;;;;;;;16.90;48.70;;;;;;5051655;28;19917;-85
2023/05/19 10:45:31;;;;;;;;;;;16.90;46.50;;;;;;5048089;28;20295;-85
2023/05/19 10:47:56;;;;;;;;;;;16.90;49.40;;;;;;5051342;28;19917;-86
2023/05/19 10:50:22;;;;;;;;;;;16.80;49.00;;;;;;5049259;28;19913;-83
2023/05/19 10:52:54;;;;;;;;;;;16.80;49.90;;;;;;5052196;28;19996;-84
2023/05/19 10:55:38;;;;;;;;;;;16.90;50.30;;;;;;5049317;28;19908;-82
2023/05/19 10:58:04;;;;;;;;;;;17.00;48.70;;;;;;5050662;28;19909;-83
2023/05/19 11:00:32;;;;;;;;;;;17.10;50.80;;;;;;5055578;28;20428;-85
2023/05/19 11:03:17;;;;;;;;;;;17.10;49.90;;;;;;5056769;28;19963;-85
2023/05/19 11:05:45;;;;;;;;;;;17.30;50.00;;;;;;5065338;28;19928;-84
2023/05/19 11:08:11;;;;;;;;;;;17.10;48.30;;;;;;5064959;28;19966;-87
2023/05/19 11:10:37;;;;;;;;;;;17.20;48.70;;;;;;5075049;28;19920;-83
2023/05/19 11:13:03;;;;;;;;;;;17.10;48.30;;;;;;5061460;28;19909;-83
2023/05/19 11:15:33;;;;;;;;;;;17.10;46.80;;;;;;5068649;28;20357;-85
2023/05/19 11:18:00;;;;;;;;;;;17.10;47.70;;;;;;5071097;28;19912;-84
2023/05/19 11:20:26;;;;;;;;;;;17.50;49.80;;;;;;5066751;28;19968;-82
2023/05/19 11:23:04;;;;;;;;;;;17.50;49.00;;;;;;5068679;28;19908;-84
2023/05/19 11:25:40;;;;;;;;;;;17.50;48.90;;;;;;5062692;28;20389;-84
2023/05/19 11:28:06;;;;;;;;;;;17.50;50.70;;;;;;5060724;28;19995;-85
2023/05/19 11:30:31;;;;;;;;;;;17.50;49.60;;;;;;5068248;28;20039;-84
2023/05/19 11:32:57;;;;;;;;;;;17.50;49.70;;;;;;5066891;28;19920;-83
2023/05/19 11:35:23;;;;;;;;;;;17.70;52.10;;;;;;5069545;28;19913;-85
2023/05/19 11:37:51;;;;;;;;;;;17.90;47.90;;;;;;5064539;28;20106;-83
2023/05/19 11:40:16;;;;;;;;;;;17.70;46.80;;;;;;5065083;28;19966;-84
2023/05/19 11:42:43;;;;;;;;;;;17.60;48.30;;;;;;5071622;28;19966;-88
2023/05/19 11:45:09;;;;;;;;;;;17.60;47.10;;;;;;5071690;28;19923;-83
2023/05/19 11:47:34;;;;;;;;;;;17.70;48.10;;;;;;5079096;28;19909;-83
2023/05/19 11:50:00;;;;;;;;;;;17.80;50.60;;;;;;5069657;28;19909;-83
2023/05/19 11:52:29;;;;;;;;;;;17.80;48.70;;;;;;5070518;28;19913;-85
2023/05/19 11:54:59;;;;;;;;;;;17.90;50.40;;;;;;5070610;28;20368;-87
2023/05/19 11:57:25;;;;;;;;;;;17.80;47.10;;;;;;5065617;28;19921;-84
2023/05/19 11:59:52;;;;;;;;;;;17.70;49.40;;;;;;5069959;28;19909;-85
2023/05/19 12:02:23;;;;;;;;;;;17.90;46.20;;;;;;5068986;28;19913;-84
2023/05/19 12:04:49;;;;;;;;;;;17.90;46.30;;;;;;5067964;28;19916;-86
2023/05/19 12:07:17;;;;;;;;;;;17.80;48.40;;;;;;5071741;28;19920;-84
2023/05/19 12:09:44;;;;;;;;;;;17.90;47.10;;;;;;5064076;28;19919;-85
2023/05/19 12:12:12;;;;;;;;;;;18.00;50.30;;;;;;5056508;28;19944;-83
2023/05/19 12:14:38;;;;;;;;;;;18.10;49.00;;;;;;5067801;28;19951;-84
2023/05/19 12:17:11;;;;;;;;;;;18.30;50.90;;;;;;5070108;28;19916;-86
2023/05/19 12:19:36;;;;;;;;;;;18.30;47.30;;;;;;5072269;28;19919;-86
2023/05/19 12:22:02;;;;;;;;;;;18.20;45.70;;;;;;5068078;28;20287;-87
2023/05/19 12:24:28;;;;;;;;;;;18.00;52.00;;;;;;5067651;28;19923;-81
2023/05/19 12:27:03;;;;;;;;;;;18.10;45.80;;;;;;5059668;28;19923;-82
2023/05/19 12:29:30;;;;;;;;;;;18.20;47.10;;;;;;5068728;28;19912;-86
2023/05/19 12:31:56;;;;;;;;;;;18.20;43.60;;;;;;5071704;28;19975;-84
2023/05/19 12:34:22;;;;;;;;;;;18.20;46.80;;;;;;5076405;28;19912;-85
2023/05/19 12:36:47;;;;;;;;;;;18.30;47.70;;;;;;5068179;28;19919;-82
2023/05/19 12:39:13;;;;;;;;;;;18.40;46.80;;;;;;5066383;28;19919;-86
2023/05/19 12:41:38;;;;;;;;;;;18.40;45.30;;;;;;5074788;28;20394;-84
2023/05/19 12:44:13;;;;;;;;;;;18.30;44.00;;;;;;5059383;28;19920;-81
2023/05/19 12:46:39;;;;;;;;;;;18.40;46.60;;;;;;5069756;28;19912;-82
2023/05/19 12:49:04;;;;;;;;;;;18.30;44.30;;;;;;5063656;28;19982;-85
2023/05/19 12:51:30;;;;;;;;;;;18.30;45.90;;;;;;5069814;28;19924;-82
2023/05/19 12:53:55;;;;;;;;;;;18.50;48.70;;;;;;5065243;28;19920;-84
2023/05/19 12:56:25;;;;;;;;;;;18.60;46.80;;;;;;5072982;28;19909;-82
2023/05/19 12:58:54;;;;;;;;;;;18.40;44.60;;;;;;5073501;28;19953;-83
2023/05/19 13:01:21;;;;;;;;;;;18.40;46.20;;;;;;5066019;28;19998;-88
2023/05/19 13:03:47;;;;;;;;;;;18.40;43.30;;;;;;5074982;28;19970;-85
2023/05/19 13:06:12;;;;;;;;;;;18.50;47.80;;;;;;5074710;28;20387;-81
2023/05/19 13:08:41;;;;;;;;;;;18.50;45.80;;;;;;5067967;28;20363;-82
2023/05/19 13:11:06;;;;;;;;;;;18.40;44.80;;;;;;5075133;28;19915;-82
2023/05/19 13:13:32;;;;;;;;;;;18.30;44.50;;;;;;5074997;28;19952;-81
2023/05/19 13:15:57;;;;;;;;;;;18.50;46.30;;;;;;5061750;28;20019;-84
2023/05/19 13:18:23;;;;;;;;;;;18.50;43.60;;;;;;5067560;28;19917;-82
2023/05/19 13:20:50;;;;;;;;;;;18.50;43.50;;;;;;5067211;28;20357;-85
2023/05/19 13:23:15;;;;;;;;;;;18.40;41.30;;;;;;5068475;28;19921;-84
2023/05/19 13:25:41;;;;;;;;;;;18.40;42.60;;;;;;5067310;28;20080;-84
2023/05/19 13:28:07;;;;;;;;;;;18.50;46.10;;;;;;5062011;28;19917;-83
2023/05/19 13:30:34;;;;;;;;;;;18.60;45.00;;;;;;5072767;22;20044;-80
2023/05/19 13:32:59;;;;;;;;;;;18.60;41.50;;;;;;5017352;28;20296;-81
2023/05/19 13:35:25;;;;;;;;;;;18.70;42.50;;;;;;5017144;28;19986;-81
2023/05/19 13:37:50;;;;;;;;;;;18.60;40.60;;;;;;5013719;28;19914;-81
2023/05/19 13:40:16;;;;;;;;;;;18.60;40.20;;;;;;5014238;28;19918;-80
2023/05/19 13:42:42;;;;;;;;;;;18.50;40.30;;;;;;5001768;28;19910;-81
2023/05/19 13:45:07;;;;;;;;;;;18.60;42.80;;;;;;5008977;28;19992;-81
2023/05/19 13:47:33;;;;;;;;;;;18.60;44.20;;;;;;5012598;28;19957;-80
2023/05/19 13:49:58;;;;;;;;;;;18.60;42.90;;;;;;5013020;28;19984;-80
2023/05/19 13:52:24;;;;;;;;;;;18.70;44.00;;;;;;5031307;28;19922;-82
2023/05/19 13:54:53;;;;;;;;;;;18.70;43.60;;;;;;5009259;28;19914;-83
2023/05/19 13:57:18;;;;;;;;;;;18.70;42.40;;;;;;5025603;28;20304;-81
2023/05/19 13:59:44;;;;;;;;;;;18.70;42.40;;;;;;5009125;28;19924;-81
2023/05/19 14:02:09;;;;;;;;;;;18.70;43.90;;;;;;5009630;28;19918;-81
2023/05/19 14:04:36;;;;;;;;;;;18.70;43.60;;;;;;5020059;28;19914;-81
2023/05/19 14:07:01;;;;;;;;;;;18.70;42.20;;;;;;5018938;28;19945;-81
2023/05/19 14:09:27;;;;;;;;;;;18.80;43.60;;;;;;5006180;28;19925;-82
2023/05/19 14:11:52;;;;;;;;;;;19.00;44.50;;;;;;5002894;28;19981;-80
2023/05/19 14:14:18;;;;;;;;;;;19.10;41.70;;;;;;5004152;28;19914;-80
2023/05/19 14:16:43;;;;;;;;;;;18.90;42.60;;;;;;5007139;28;19914;-80
2023/05/19 14:19:09;;;;;;;;;;;18.70;42.40;;;;;;5003149;28;19920;-82